createdAt,value
2022-11-16T00:00:18.836Z,99998.78
2022-11-16T00:02:45.418Z,100004.22
2022-11-16T00:05:12.124Z,100003.06
2022-11-16T00:07:38.761Z,99997.59
2022-11-16T00:10:05.853Z,99993.31
2022-11-16T00:12:32.503Z,99998.78
2022-11-16T00:14:59.032Z,99997.59
2022-11-16T00:20:09.496Z,99996.41
2022-11-16T00:22:36.147Z,99992.50
2022-11-16T00:25:02.738Z,99999.91
2022-11-16T00:30:10.845Z,99997.16
2022-11-16T00:32:37.457Z,99998.31
2022-11-16T00:35:04.848Z,99991.72
2022-11-16T00:37:31.384Z,99994.44
2022-11-16T00:40:22.618Z,99991.31
2022-11-16T00:42:49.229Z,99994.81
2022-11-16T00:45:15.769Z,100002.22
2022-11-16T00:47:42.309Z,99987.81
2022-11-16T00:50:09.077Z,99984.31
2022-11-16T00:52:35.689Z,99988.56
2022-11-16T00:55:02.318Z,99976.13
2022-11-16T00:57:28.865Z,99985.06
2022-11-16T00:59:55.428Z,99980.78
2022-11-16T01:02:21.960Z,99983.88
2022-11-16T01:04:48.590Z,99978.84
2022-11-16T01:07:15.281Z,99971.47
2022-11-16T01:09:41.794Z,99967.97
2022-11-16T01:12:09.553Z,99993.63
2022-11-16T01:14:38.231Z,99980.78
2022-11-16T01:17:04.820Z,99981.94
2022-11-16T01:19:31.498Z,99973.78
2022-11-16T01:21:58.744Z,99976.09
2022-11-16T01:24:26.673Z,99980.75
2022-11-16T01:26:58.027Z,99976.50
2022-11-16T01:29:25.876Z,99973.00
2022-11-16T01:31:52.402Z,99967.91
2022-11-16T01:34:19.072Z,99966.34
2022-11-16T01:36:45.606Z,99967.88
2022-11-16T01:39:13.395Z,99960.50
2022-11-16T01:41:41.378Z,99967.88
2022-11-16T01:44:14.721Z,99959.72
2022-11-16T01:46:42.311Z,99969.84
2022-11-16T01:49:13.398Z,99961.69
2022-11-16T01:51:42.598Z,99963.97
2022-11-16T01:54:12.416Z,99962.06
2022-11-16T01:56:42.160Z,99960.09
2022-11-16T01:59:09.237Z,99959.69
2022-11-16T02:01:35.938Z,99956.19
2022-11-16T02:04:02.719Z,99960.88
2022-11-16T02:07:02.809Z,99950.75
2022-11-16T02:09:58.249Z,99946.84
2022-11-16T02:14:46.774Z,99940.22
2022-11-16T02:23:56.222Z,99929.34
2022-11-16T02:26:59.932Z,99939.47
2022-11-16T02:29:37.925Z,99927.38
2022-11-16T02:32:12.283Z,99930.91
2022-11-16T02:34:45.028Z,99928.94
2022-11-16T02:37:15.065Z,99929.34
2022-11-16T02:39:44.342Z,99937.50
2022-11-16T02:42:15.090Z,99937.50
2022-11-16T02:44:47.858Z,99925.03
2022-11-16T02:47:23.109Z,99927.75
2022-11-16T02:49:55.273Z,99923.88
2022-11-16T02:52:23.683Z,99930.06
2022-11-16T02:54:50.349Z,99919.19
2022-11-16T02:57:34.482Z,99923.88
2022-11-16T03:00:02.497Z,99930.47
2022-11-16T03:02:38.084Z,99933.19
2022-11-16T03:05:13.437Z,99930.91
2022-11-16T03:08:09.203Z,99925.47
2022-11-16T03:10:58.391Z,99928.53
2022-11-16T03:13:31.483Z,99925.81
2022-11-16T03:16:16.858Z,99926.97
2022-11-16T03:18:45.784Z,99934.38
2022-11-16T03:21:25.395Z,99944.50
2022-11-16T03:24:06.238Z,99938.28
2022-11-16T03:27:07.224Z,99941.78
2022-11-16T03:29:55.137Z,99941.78
2022-11-16T03:32:43.271Z,99941.00
2022-11-16T03:35:21.694Z,99932.13
2022-11-16T03:38:15.540Z,99937.19
2022-11-16T03:41:06.002Z,99935.25
2022-11-16T03:43:34.716Z,99941.44
2022-11-16T03:46:05.770Z,99945.34
2022-11-16T03:48:37.984Z,99948.47
2022-11-16T03:51:09.051Z,99952.78
2022-11-16T03:53:37.067Z,99948.94
2022-11-16T03:56:04.368Z,99936.91
2022-11-16T03:58:32.765Z,99951.28
2022-11-16T04:01:04.261Z,99953.22
2022-11-16T04:03:57.736Z,99954.41
2022-11-16T04:06:44.132Z,99957.94
2022-11-16T04:09:23.999Z,99960.28
2022-11-16T04:12:19.506Z,99961.06
2022-11-16T04:15:12.337Z,99961.81
2022-11-16T04:18:00.370Z,99963.41
2022-11-16T04:20:46.798Z,99963.78
2022-11-16T04:23:34.576Z,99956.81
2022-11-16T04:26:01.159Z,99959.16
2022-11-16T04:28:30.843Z,99958.78
2022-11-16T04:31:18.467Z,99964.63
2022-11-16T04:34:03.620Z,99956.09
2022-11-16T04:36:48.758Z,99961.16
2022-11-16T04:39:15.393Z,99970.50
2022-11-16T04:42:01.430Z,99974.81
2022-11-16T04:44:47.865Z,99971.72
2022-11-16T04:47:14.541Z,99972.88
2022-11-16T04:49:41.031Z,99974.84
2022-11-16T04:52:08.956Z,99974.91
2022-11-16T04:54:35.571Z,99977.63
2022-11-16T04:57:02.411Z,99978.00
2022-11-16T04:59:28.993Z,99970.66
2022-11-16T05:02:08.633Z,99979.22
2022-11-16T05:04:36.768Z,99971.47
2022-11-16T05:07:03.889Z,99976.53
2022-11-16T05:09:30.786Z,99980.81
2022-11-16T05:11:57.333Z,99980.06
2022-11-16T05:14:24.959Z,99979.69
2022-11-16T05:16:51.491Z,99988.22
2022-11-16T05:19:36.475Z,99991.00
2022-11-16T05:22:02.959Z,99995.69
2022-11-16T05:24:35.525Z,99991.06
2022-11-16T05:27:05.695Z,99996.88
2022-11-16T05:29:33.152Z,99999.22
2022-11-16T05:32:00.409Z,100001.19
2022-11-16T05:34:27.545Z,99996.94
2022-11-16T05:36:54.632Z,100002.00
2022-11-16T05:39:21.180Z,99996.19
2022-11-16T05:41:48.268Z,100000.47
2022-11-16T05:44:15.835Z,99998.16
2022-11-16T05:46:43.163Z,100005.53
2022-11-16T05:49:11.952Z,100008.66
2022-11-16T05:51:40.377Z,100013.69
2022-11-16T05:54:07.502Z,100011.41
2022-11-16T05:56:34.806Z,100019.94
2022-11-16T05:59:01.492Z,100023.44
2022-11-16T06:01:28.036Z,100019.94
2022-11-16T06:03:54.556Z,100020.72
2022-11-16T06:06:21.210Z,100021.09
2022-11-16T06:08:47.847Z,100024.22
2022-11-16T06:11:14.484Z,100018.41
2022-11-16T06:13:41.211Z,100015.69
2022-11-16T06:16:07.928Z,100016.06
2022-11-16T06:18:38.416Z,100022.31
2022-11-16T06:21:05.420Z,100013.38
2022-11-16T06:23:32.103Z,100018.06
2022-11-16T06:25:58.947Z,100010.69
2022-11-16T06:28:25.991Z,100013.03
2022-11-16T06:50:52.826Z,100034.06
2022-11-16T06:53:23.541Z,100034.88
2022-11-16T06:55:56.551Z,100036.06
2022-11-16T06:58:23.093Z,100038.44
2022-11-16T07:00:49.688Z,100044.63
2022-11-16T07:03:16.258Z,100051.63
2022-11-16T07:05:42.815Z,100049.69
2022-11-16T07:08:11.568Z,100041.56
2022-11-16T07:10:38.635Z,100045.44
2022-11-16T07:13:05.623Z,100052.44
2022-11-16T07:15:33.292Z,100048.56
2022-11-16T07:20:52.810Z,100058.28
2022-11-16T07:23:21.878Z,100063.31
2022-11-16T07:25:48.556Z,100068.34
2022-11-16T07:28:16.530Z,100066.81
2022-11-16T07:30:44.758Z,100072.25
2022-11-16T07:33:11.233Z,100079.59
2022-11-16T07:35:37.686Z,100078.81
2022-11-16T07:38:05.264Z,100084.63
2022-11-16T07:40:31.800Z,100081.16
2022-11-16T07:42:58.765Z,100086.19
2022-11-16T07:45:25.303Z,100088.91
2022-11-16T07:47:53.461Z,100093.19
2022-11-16T07:50:19.970Z,100093.19
2022-11-16T07:52:46.706Z,100099.75
2022-11-16T07:55:13.541Z,100102.47
2022-11-16T07:57:40.036Z,100106.72
2022-11-16T08:00:07.146Z,100117.19
2022-11-16T08:02:33.717Z,100114.88
2022-11-16T08:05:00.216Z,100120.69
2022-11-16T08:07:26.761Z,100121.47
2022-11-16T08:09:53.406Z,100126.91
2022-11-16T08:12:19.997Z,100128.44
2022-11-16T08:14:47.683Z,100130.38
2022-11-16T08:17:14.144Z,100133.47
2022-11-16T08:19:42.292Z,100131.56
2022-11-16T08:22:09.358Z,100130.75
2022-11-16T08:24:35.889Z,100131.16
2022-11-16T08:27:02.499Z,100131.53
2022-11-16T08:29:29.571Z,100136.59
2022-11-16T08:31:56.081Z,100139.31
2022-11-16T08:34:22.726Z,100139.69
2022-11-16T08:36:49.309Z,100140.06
2022-11-16T08:39:15.900Z,100136.59
2022-11-16T08:41:44.246Z,100135.03
2022-11-16T08:44:11.432Z,100132.28
2022-11-16T08:46:38.146Z,100140.06
2022-11-16T08:49:04.717Z,100141.22
2022-11-16T08:51:31.275Z,100140.84
2022-11-16T08:53:58.828Z,100142.38
2022-11-16T08:56:27.412Z,100151.28
2022-11-16T08:58:58.426Z,100154.00
2022-11-16T09:01:27.710Z,100151.69
2022-11-16T09:03:54.674Z,100153.97
2022-11-16T09:06:22.183Z,100146.25
2022-11-16T09:08:48.936Z,100152.44
2022-11-16T09:11:18.367Z,100150.88
2022-11-16T09:13:46.338Z,100161.34
2022-11-16T09:16:16.683Z,100148.94
2022-11-16T09:18:44.614Z,100160.56
2022-11-16T09:21:11.438Z,100156.66
2022-11-16T09:23:39.551Z,100160.13
2022-11-16T09:26:06.662Z,100158.97
2022-11-16T09:28:34.262Z,100166.31
2022-11-16T09:31:04.046Z,100166.28
2022-11-16T09:33:31.433Z,100169.78
2022-11-16T09:36:02.475Z,100172.88
2022-11-16T09:38:40.722Z,100170.56
2022-11-16T09:41:15.643Z,100174.06
2022-11-16T09:43:51.157Z,100179.13
2022-11-16T09:46:27.001Z,100174.44
2022-11-16T09:48:56.860Z,100175.97
2022-11-16T09:51:26.910Z,100172.50
2022-11-16T09:54:03.423Z,100172.09
2022-11-16T09:56:35.326Z,100170.53
2022-11-16T09:59:16.829Z,100172.47
2022-11-16T10:01:54.786Z,100176.34
2022-11-16T10:04:39.930Z,100176.31
2022-11-16T10:07:20.552Z,100174.00
2022-11-16T10:09:47.597Z,100178.66
2022-11-16T10:12:29.886Z,100170.47
2022-11-16T10:15:08.498Z,100180.16
2022-11-16T10:18:00.099Z,100170.06
2022-11-16T10:21:00.413Z,100170.44
2022-11-16T10:23:45.634Z,100168.09
2022-11-16T10:26:46.208Z,100166.94
2022-11-16T10:29:24.778Z,100168.47
2022-11-16T10:32:07.330Z,100173.53
2022-11-16T10:34:49.667Z,100171.94
2022-11-16T10:37:16.581Z,100172.34
2022-11-16T10:39:43.825Z,100162.22
2022-11-16T10:42:14.210Z,100171.16
2022-11-16T10:44:46.025Z,100170.75
2022-11-16T10:47:22.944Z,100166.84
2022-11-16T10:49:57.209Z,100164.94
2022-11-16T10:52:24.211Z,100170.34
2022-11-16T10:54:51.357Z,100164.50
2022-11-16T10:57:18.263Z,100169.16
2022-11-16T10:59:47.771Z,100172.25
2022-11-16T11:02:31.421Z,100173.38
2022-11-16T11:05:02.400Z,100172.59
2022-11-16T11:07:32.842Z,100165.97
2022-11-16T11:09:59.572Z,100168.69
2022-11-16T11:12:42.785Z,100172.56
2022-11-16T11:15:12.224Z,100165.59
2022-11-16T11:17:45.226Z,100164.75
2022-11-16T11:20:15.846Z,100162.78
2022-11-16T11:22:46.332Z,100164.72
2022-11-16T11:25:29.423Z,100169.03
2022-11-16T11:28:08.216Z,100161.63
2022-11-16T11:30:35.737Z,100160.09
2022-11-16T11:33:11.305Z,100160.09
2022-11-16T11:35:38.097Z,100151.16
2022-11-16T11:38:07.903Z,100142.56
2022-11-16T11:40:34.916Z,100144.53
2022-11-16T11:43:04.568Z,100150.75
2022-11-16T11:45:47.369Z,100139.88
2022-11-16T11:48:13.803Z,100133.25
2022-11-16T11:50:54.631Z,100132.84
2022-11-16T11:53:45.547Z,100131.25
2022-11-16T11:56:14.157Z,100125.81
2022-11-16T11:58:41.916Z,100123.91
2022-11-16T12:01:41.218Z,100129.72
2022-11-16T12:04:49.422Z,100134.78
2022-11-16T12:07:28.160Z,100136.72
2022-11-16T12:10:18.707Z,100128.13
2022-11-16T12:12:52.422Z,100130.03
2022-11-16T12:15:35.352Z,100136.63
2022-11-16T12:18:24.489Z,100132.31
2022-11-16T12:21:06.596Z,100128.44
2022-11-16T12:23:41.249Z,100129.97
2022-11-16T12:26:23.007Z,100136.16
2022-11-16T12:29:02.571Z,100131.91
2022-11-16T12:32:05.706Z,100135.00
2022-11-16T12:34:53.299Z,100137.28
2022-11-16T12:37:39.480Z,100127.56
2022-11-16T12:40:26.221Z,100124.00
2022-11-16T12:43:11.255Z,100124.81
2022-11-16T12:45:51.467Z,100119.31
2022-11-16T12:48:33.622Z,100113.41
2022-11-16T12:51:27.509Z,100111.03
2022-11-16T12:54:06.448Z,100112.25
2022-11-16T12:56:45.923Z,100090.50
2022-11-16T12:59:29.697Z,100096.78
2022-11-16T13:02:14.038Z,100096.00
2022-11-16T13:04:45.836Z,100093.31
2022-11-16T13:07:18.738Z,100089.03
2022-11-16T13:09:49.184Z,100093.72
2022-11-16T13:12:18.235Z,100097.59
2022-11-16T13:14:47.577Z,100094.50
2022-11-16T13:17:20.654Z,100086.69
2022-11-16T13:20:07.063Z,100080.88
2022-11-16T13:22:39.130Z,100091.34
2022-11-16T13:25:25.212Z,100085.13
2022-11-16T13:27:55.551Z,100070.00
2022-11-16T13:30:24.677Z,100073.47
2022-11-16T13:33:05.333Z,100075.44
2022-11-16T13:35:37.473Z,100083.59
2022-11-16T13:38:05.515Z,100086.72
2022-11-16T13:40:33.549Z,100082.47
2022-11-16T13:43:05.130Z,100085.19
2022-11-16T13:45:41.416Z,100084.81
2022-11-16T13:48:25.493Z,100085.22
2022-11-16T13:50:57.642Z,100082.94
2022-11-16T13:56:13.607Z,100074.41
2022-11-16T13:58:46.819Z,100070.91
2022-11-16T14:01:14.735Z,100067.38
2022-11-16T14:03:51.670Z,100068.94
2022-11-16T14:06:19.113Z,100056.09
2022-11-16T14:08:52.026Z,100059.59
2022-11-16T14:11:30.487Z,100061.16
2022-11-16T14:13:57.534Z,100061.53
2022-11-16T14:17:07.047Z,100056.47
2022-11-16T14:23:49.128Z,100042.53
2022-11-16T14:26:24.482Z,100045.28
2022-11-16T14:29:29.957Z,100043.78
2022-11-16T14:31:59.241Z,100038.38
2022-11-16T14:34:41.885Z,100041.47
2022-11-16T14:37:28.746Z,100035.28
2022-11-16T14:40:16.112Z,100043.44
2022-11-16T14:45:48.994Z,100028.69
2022-11-16T14:48:19.088Z,100032.56
2022-11-16T14:51:00.250Z,100020.91
2022-11-16T14:53:28.629Z,100013.56
2022-11-16T14:56:07.972Z,100019.78
2022-11-16T14:58:35.838Z,100020.59
2022-11-16T15:01:05.108Z,100014.41
2022-11-16T15:03:39.002Z,100014.09
2022-11-16T15:06:07.565Z,100011.00
2022-11-16T15:08:47.514Z,100003.25
2022-11-16T15:11:24.548Z,100010.28
2022-11-16T15:13:51.333Z,100007.63
2022-11-16T15:16:20.079Z,100003.75
2022-11-16T15:18:59.662Z,100003.03
2022-11-16T15:21:26.946Z,99996.50
2022-11-16T15:24:23.445Z,99998.03
2022-11-16T15:26:40.147Z,99991.84
2022-11-16T15:29:15.216Z,99983.34
2022-11-16T15:31:42.604Z,99971.72
2022-11-16T15:34:13.239Z,99976.41
2022-11-16T15:36:40.560Z,99974.47
2022-11-16T15:39:14.160Z,99978.00
2022-11-16T15:41:41.793Z,99975.72
2022-11-16T15:44:15.291Z,99970.66
2022-11-16T15:46:45.637Z,99963.69
2022-11-16T15:49:30.239Z,99963.31
2022-11-16T15:51:58.615Z,99948.59
2022-11-16T15:54:26.467Z,99936.16
2022-11-16T15:56:56.507Z,99927.22
2022-11-16T15:59:33.482Z,99932.66
2022-11-16T16:02:00.246Z,99921.47
2022-11-16T16:04:28.917Z,99931.94
2022-11-16T16:06:58.833Z,99928.09
2022-11-16T16:09:29.330Z,99917.63
2022-11-16T16:12:16.517Z,99900.94
2022-11-16T16:14:43.467Z,99916.84
2022-11-16T16:17:12.470Z,99932.41
2022-11-16T16:19:42.692Z,99929.72
2022-11-16T16:22:23.210Z,99931.69
2022-11-16T16:24:49.662Z,99927.84
2022-11-16T16:27:19.493Z,99924.78
2022-11-16T16:29:47.818Z,99919.38
2022-11-16T16:32:26.655Z,99925.59
2022-11-16T16:34:54.923Z,99922.50
2022-11-16T16:37:23.253Z,99912.41
2022-11-16T16:39:49.850Z,99900.41
2022-11-16T16:42:17.494Z,99906.22
2022-11-16T16:44:45.204Z,99906.22
2022-11-16T16:47:12.043Z,99909.28
2022-11-16T16:49:39.700Z,99900.38
2022-11-16T16:52:07.598Z,99900.41
2022-11-16T16:54:34.354Z,99901.16
2022-11-16T16:57:04.515Z,99905.41
2022-11-16T16:59:31.183Z,99897.69
2022-11-16T17:01:58.968Z,99893.84
2022-11-16T17:04:25.738Z,99888.03
2022-11-16T17:06:53.084Z,99883.41
2022-11-16T17:09:20.045Z,99874.09
2022-11-16T17:11:47.413Z,99885.31
2022-11-16T17:14:14.024Z,99874.88
2022-11-16T17:16:40.693Z,99879.50
2022-11-16T17:19:07.247Z,99875.66
2022-11-16T17:21:33.770Z,99875.28
2022-11-16T17:24:01.414Z,99879.50
2022-11-16T17:26:30.376Z,99873.31
2022-11-16T17:28:58.140Z,99889.59
2022-11-16T17:31:26.081Z,99881.47
2022-11-16T17:33:52.898Z,99876.06
2022-11-16T17:36:19.658Z,99884.59
2022-11-16T17:38:46.737Z,99883.03
2022-11-16T17:41:15.783Z,99879.94
2022-11-16T17:43:45.267Z,99876.88
2022-11-16T17:46:14.895Z,99871.06
2022-11-16T17:48:43.327Z,99866.41
2022-11-16T17:51:12.169Z,99855.97
2022-11-16T17:53:40.860Z,99853.28
2022-11-16T17:56:07.709Z,99857.53
2022-11-16T17:58:35.694Z,99858.28
2022-11-16T18:01:02.282Z,99854.03
2022-11-16T18:03:29.121Z,99855.19
2022-11-16T18:06:04.462Z,99858.69
2022-11-16T18:08:32.269Z,99849.75
2022-11-16T18:11:09.651Z,99842.03
2022-11-16T18:13:37.178Z,99849.00
2022-11-16T18:16:06.024Z,99842.03
2022-11-16T18:18:33.791Z,99850.94
2022-11-16T18:21:06.492Z,99843.94
2022-11-16T18:23:34.172Z,99836.94
2022-11-16T18:26:03.980Z,99841.19
2022-11-16T18:28:30.620Z,99839.63
2022-11-16T18:31:04.583Z,99842.72
2022-11-16T18:33:32.158Z,99846.22
2022-11-16T18:35:59.706Z,99837.28
2022-11-16T18:38:26.389Z,99843.84
2022-11-16T18:41:19.673Z,99842.69
2022-11-16T18:43:53.863Z,99842.66
2022-11-16T18:46:23.153Z,99838.78
2022-11-16T18:48:49.932Z,99832.19
2022-11-16T18:51:20.300Z,99823.66
2022-11-16T18:53:47.283Z,99816.69
2022-11-16T18:56:14.172Z,99819.03
2022-11-16T18:58:50.267Z,99816.72
2022-11-16T19:01:20.259Z,99812.47
2022-11-16T19:03:46.935Z,99805.47
2022-11-16T19:06:15.764Z,99806.22
2022-11-16T19:08:42.838Z,99798.06
2022-11-16T19:11:12.369Z,99804.28
2022-11-16T19:13:40.526Z,99795.38
2022-11-16T19:16:09.256Z,99788.75
2022-11-16T19:18:36.898Z,99784.88
2022-11-16T19:21:12.816Z,99775.19
2022-11-16T19:23:42.941Z,99766.66
2022-11-16T19:26:10.491Z,99756.94
2022-11-16T19:28:38.445Z,99751.88
2022-11-16T19:31:09.518Z,99751.13
2022-11-16T19:33:36.911Z,99739.47
2022-11-16T19:36:09.414Z,99732.88
2022-11-16T19:38:36.315Z,99735.97
2022-11-16T19:41:03.175Z,99730.13
2022-11-16T19:43:29.824Z,99723.91
2022-11-16T19:46:01.189Z,99722.34
2022-11-16T19:48:27.821Z,99718.47
2022-11-16T19:50:54.398Z,99712.28
2022-11-16T19:53:20.993Z,99702.94
2022-11-16T19:55:55.076Z,99693.66
2022-11-16T19:58:21.746Z,99694.81
2022-11-16T20:00:48.401Z,99691.69
2022-11-16T20:03:15.102Z,99685.84
2022-11-16T20:05:41.674Z,99678.50
2022-11-16T20:08:08.281Z,99671.13
2022-11-16T20:10:34.875Z,99667.25
2022-11-16T20:13:01.438Z,99657.56
2022-11-16T20:15:28.085Z,99651.38
2022-11-16T20:17:54.698Z,99657.16
2022-11-16T20:20:21.354Z,99642.06
2022-11-16T20:22:48.768Z,99635.47
2022-11-16T20:25:15.958Z,99641.25
2022-11-16T20:27:42.816Z,99632.34
2022-11-16T20:30:10.090Z,99642.03
2022-11-16T20:32:36.682Z,99640.06
2022-11-16T20:35:03.337Z,99637.34
2022-11-16T20:37:29.872Z,99630.38
2022-11-16T20:39:57.242Z,99630.38
2022-11-16T20:42:24.144Z,99624.94
2022-11-16T20:44:52.793Z,99619.09
2022-11-16T20:47:19.405Z,99613.25
2022-11-16T20:49:45.935Z,99613.63
2022-11-16T20:52:12.443Z,99603.94
2022-11-16T20:54:38.985Z,99599.28
2022-11-16T20:57:05.627Z,99576.78
2022-11-16T20:59:32.235Z,99598.88
2022-11-16T21:01:58.869Z,99589.97
2022-11-16T21:04:25.796Z,99590.72
2022-11-16T21:06:52.400Z,99588.38
2022-11-16T21:09:22.862Z,99591.84
2022-11-16T21:12:08.564Z,99571.31
2022-11-16T21:14:35.293Z,99566.25
2022-11-16T21:17:01.917Z,99549.19
2022-11-16T21:19:28.517Z,99541.06
2022-11-16T21:21:55.111Z,99545.28
2022-11-16T21:24:24.689Z,99539.50
2022-11-16T21:26:53.502Z,99538.34
2022-11-16T21:29:25.854Z,99529.00
2022-11-16T21:31:53.620Z,99524.34
2022-11-16T21:34:20.302Z,99522.03
2022-11-16T21:36:47.567Z,99515.44
2022-11-16T21:39:14.172Z,99511.19
2022-11-16T21:41:40.726Z,99508.03
2022-11-16T21:44:07.305Z,99494.47
2022-11-16T21:46:33.795Z,99485.16
2022-11-16T21:49:00.449Z,99471.97
2022-11-16T21:51:27.430Z,99467.31
2022-11-16T21:53:54.566Z,99469.25
2022-11-16T21:56:23.313Z,99464.59
2022-11-16T21:58:50.493Z,99455.31
2022-11-16T22:01:17.310Z,99452.22
2022-11-16T22:03:44.798Z,99446.78
2022-11-16T22:06:33.189Z,99437.88
2022-11-16T22:09:00.162Z,99442.13
2022-11-16T22:11:28.953Z,99436.69
2022-11-16T22:13:55.486Z,99429.31
2022-11-16T22:16:23.342Z,99428.13
2022-11-16T22:18:50.393Z,99413.38
2022-11-16T22:21:17.259Z,99410.66
2022-11-16T22:23:43.830Z,99397.84
2022-11-16T22:26:12.200Z,99395.91
2022-11-16T22:28:39.333Z,99378.84
2022-11-16T22:31:10.481Z,99382.34
2022-11-16T22:33:37.993Z,99366.81
2022-11-16T22:36:05.441Z,99357.47
2022-11-16T22:38:31.966Z,99352.03
2022-11-16T22:40:59.502Z,99336.19
2022-11-16T22:43:27.755Z,99336.94
2022-11-16T22:45:59.624Z,99324.13
2022-11-16T22:48:34.429Z,99324.88
2022-11-16T22:51:08.069Z,99322.97
2022-11-16T22:53:35.106Z,99311.31
2022-11-16T22:56:04.832Z,99303.16
2022-11-16T22:58:31.465Z,99301.22
2022-11-16T23:00:58.035Z,99292.66
2022-11-16T23:03:24.634Z,99279.06
2022-11-16T23:05:51.310Z,99268.22
2022-11-16T23:08:17.793Z,99264.75
2022-11-16T23:11:02.872Z,99262.44
2022-11-16T23:13:47.960Z,99248.44
2022-11-16T23:16:14.483Z,99247.34
2022-11-16T23:18:40.963Z,99239.19
2022-11-16T23:21:26.308Z,99235.72
2022-11-16T23:24:11.367Z,99231.44
2022-11-16T23:26:56.452Z,99229.50
2022-11-16T23:29:23.018Z,99226.00
2022-11-16T23:31:49.549Z,99227.22
2022-11-16T23:34:16.055Z,99209.38
2022-11-16T23:36:43.228Z,99203.19
2022-11-16T23:39:09.709Z,99184.94
2022-11-16T23:41:54.878Z,99183.41
2022-11-16T23:44:21.512Z,99173.72
2022-11-16T23:46:48.061Z,99156.66
2022-11-16T23:49:14.558Z,99153.97
2022-11-16T23:51:41.190Z,99139.63
2022-11-16T23:54:07.748Z,99126.81
2022-11-16T23:56:34.356Z,99116.34
2022-11-16T23:59:00.894Z,99112.47
